Time;durP1;ratioP1;P1;durP2;ratioP2;P2;SDS_P1;SDS_P2;PMS_P1;PMS_P2;Temp;Humidity;BMP_temperature;BMP_pressure;BME280_temperature;BME280_humidity;BME280_pressure;Samples;Min_cycle;Max_cycle;Signal;HPM_P1;HPM_P2
2022/10/11 00:01:32;;;;;;;23.98;12.00;;;;;;;;;;7384714;19;20325;-70
2022/10/11 00:03:58;;;;;;;26.85;12.80;;;;;;;;;;7387409;19;20009;-71
2022/10/11 00:06:23;;;;;;;23.60;13.02;;;;;;;;;;7387492;19;19999;-71
2022/10/11 00:08:48;;;;;;;26.27;13.73;;;;;;;;;;7392315;19;19998;-71
2022/10/11 00:11:14;;;;;;;25.00;13.40;;;;;;;;;;7391489;19;19998;-69
2022/10/11 00:13:39;;;;;;;21.48;13.60;;;;;;;;;;7394946;19;20006;-70
2022/10/11 00:16:09;;;;;;;25.80;13.50;;;;;;;;;;7392603;19;20018;-69
2022/10/11 00:18:35;;;;;;;23.50;14.50;;;;;;;;;;7394580;19;20009;-71
2022/10/11 00:21:10;;;;;;;23.92;13.18;;;;;;;;;;7390206;19;20758;-70
2022/10/11 00:23:36;;;;;;;24.55;14.02;;;;;;;;;;7393059;19;20002;-70
2022/10/11 00:26:03;;;;;;;22.45;14.30;;;;;;;;;;7392773;19;20009;-70
2022/10/11 00:28:29;;;;;;;23.23;14.18;;;;;;;;;;7394374;19;20019;-70
2022/10/11 00:30:54;;;;;;;25.05;14.80;;;;;;;;;;7391168;19;20720;-72
2022/10/11 00:33:29;;;;;;;25.42;14.55;;;;;;;;;;7391132;19;20110;-69
2022/10/11 00:35:54;;;;;;;25.02;15.15;;;;;;;;;;7392287;19;20034;-71
2022/10/11 00:38:20;;;;;;;23.27;14.68;;;;;;;;;;7393996;19;20011;-69
2022/10/11 00:40:45;;;;;;;23.00;14.38;;;;;;;;;;7392710;19;20076;-70
2022/10/11 00:43:20;;;;;;;23.25;15.15;;;;;;;;;;7391392;19;19998;-70
2022/10/11 00:45:48;;;;;;;24.02;15.23;;;;;;;;;;7395681;19;20420;-70
2022/10/11 00:48:26;;;;;;;26.33;14.75;;;;;;;;;;7394051;19;20484;-70
2022/10/11 00:51:00;;;;;;;27.90;15.73;;;;;;;;;;7392455;19;20018;-69
2022/10/11 00:53:29;;;;;;;30.92;15.55;;;;;;;;;;7391543;19;20062;-69
2022/10/11 00:56:03;;;;;;;32.00;16.30;;;;;;;;;;7392161;19;19998;-70
2022/10/11 00:58:29;;;;;;;27.00;15.23;;;;;;;;;;7394051;19;19995;-70
2022/10/11 01:00:54;;;;;;;25.52;16.45;;;;;;;;;;7392300;19;19995;-70
2022/10/11 01:03:24;;;;;;;25.70;15.27;;;;;;;;;;7392803;19;19991;-69
2022/10/11 01:05:49;;;;;;;22.98;15.60;;;;;;;;;;7393842;19;20662;-69
2022/10/11 01:08:15;;;;;;;28.13;15.80;;;;;;;;;;7394095;19;20002;-72
2022/10/11 01:10:40;;;;;;;29.27;15.48;;;;;;;;;;7390761;19;20009;-70
2022/10/11 01:13:24;;;;;;;24.25;16.00;;;;;;;;;;7391283;19;19998;-70
2022/10/11 01:16:07;;;;;;;24.50;14.52;;;;;;;;;;7386077;19;19995;-71
2022/10/11 01:18:57;;;;;;;24.77;14.88;;;;;;;;;;7387858;19;20002;-72
2022/10/11 01:21:38;;;;;;;21.88;13.73;;;;;;;;;;7387231;19;19998;-71
2022/10/11 01:24:39;;;;;;;23.38;14.40;;;;;;;;;;7390006;19;20082;-70
2022/10/11 01:27:43;;;;;;;21.85;15.00;;;;;;;;;;7388371;19;20003;-69
2022/10/11 01:30:21;;;;;;;22.83;15.00;;;;;;;;;;7391367;19;20008;-71
2022/10/11 01:32:59;;;;;;;26.83;16.38;;;;;;;;;;7393821;19;19994;-69
2022/10/11 01:35:40;;;;;;;22.23;14.73;;;;;;;;;;7390252;19;20566;-70
2022/10/11 01:38:24;;;;;;;30.27;16.55;;;;;;;;;;7393369;19;20078;-71
2022/10/11 01:40:54;;;;;;;22.95;15.15;;;;;;;;;;7391612;19;19999;-70
2022/10/11 01:43:21;;;;;;;23.10;14.65;;;;;;;;;;7395422;19;20001;-70
2022/10/11 01:45:50;;;;;;;24.20;14.77;;;;;;;;;;7392615;19;19999;-69
2022/10/11 01:48:15;;;;;;;24.10;14.35;;;;;;;;;;7392554;19;19999;-69
2022/10/11 01:50:50;;;;;;;24.20;13.27;;;;;;;;;;7390785;19;20720;-70
2022/10/11 01:53:33;;;;;;;20.27;12.95;;;;;;;;;;7390828;19;20011;-70
2022/10/11 01:56:21;;;;;;;21.40;11.88;;;;;;;;;;7390219;19;19995;-70
2022/10/11 01:59:27;;;;;;;21.63;11.05;;;;;;;;;;7390410;19;19998;-70
2022/10/11 02:02:17;;;;;;;20.42;12.18;;;;;;;;;;7386348;19;20474;-70
2022/10/11 02:04:54;;;;;;;19.33;11.88;;;;;;;;;;7391346;19;20065;-70
2022/10/11 02:07:35;;;;;;;17.52;9.82;;;;;;;;;;7391548;19;20003;-70
2022/10/11 02:10:18;;;;;;;17.10;9.38;;;;;;;;;;7390806;19;20806;-70
2022/10/11 02:13:01;;;;;;;16.88;9.43;;;;;;;;;;7389737;19;20382;-70
2022/10/11 02:15:29;;;;;;;18.02;8.90;;;;;;;;;;7390204;19;20342;-70
2022/10/11 02:17:59;;;;;;;18.00;10.02;;;;;;;;;;7391080;19;20030;-70
2022/10/11 02:20:29;;;;;;;17.45;9.15;;;;;;;;;;7388480;19;20007;-70
2022/10/11 02:23:12;;;;;;;13.73;8.88;;;;;;;;;;7389904;19;20021;-70
2022/10/11 02:25:38;;;;;;;8.90;5.97;;;;;;;;;;7390657;19;20007;-70
2022/10/11 02:28:11;;;;;;;17.13;5.47;;;;;;;;;;7390642;19;20007;-70
2022/10/11 02:30:39;;;;;;;11.88;4.63;;;;;;;;;;7389559;19;20057;-70
2022/10/11 02:33:07;;;;;;;11.07;4.55;;;;;;;;;;7389002;19;19999;-70
2022/10/11 02:35:37;;;;;;;8.95;3.75;;;;;;;;;;7389143;19;20011;-69
2022/10/11 02:38:13;;;;;;;8.40;3.65;;;;;;;;;;7390389;19;20468;-70
2022/10/11 02:40:43;;;;;;;7.38;3.10;;;;;;;;;;7389761;19;20080;-69
2022/10/11 02:43:16;;;;;;;8.73;3.47;;;;;;;;;;7388891;19;20438;-70
2022/10/11 02:45:53;;;;;;;9.32;3.05;;;;;;;;;;7391173;19;20009;-71
2022/10/11 02:48:18;;;;;;;6.15;2.70;;;;;;;;;;7388248;19;20472;-69
2022/10/11 02:50:44;;;;;;;8.15;2.92;;;;;;;;;;7388999;19;20019;-71
2022/10/11 02:53:09;;;;;;;11.82;2.22;;;;;;;;;;7389293;19;20298;-70
2022/10/11 02:55:35;;;;;;;9.52;2.80;;;;;;;;;;7389169;19;19999;-70
2022/10/11 02:58:01;;;;;;;10.55;2.50;;;;;;;;;;7390132;19;20027;-70
2022/10/11 03:00:27;;;;;;;12.43;2.92;;;;;;;;;;7387315;19;20026;-71
2022/10/11 03:02:52;;;;;;;13.90;2.90;;;;;;;;;;7386750;19;19998;-69
2022/10/11 03:05:17;;;;;;;9.02;2.50;;;;;;;;;;7389292;19;20010;-69
2022/10/11 03:07:43;;;;;;;7.15;2.63;;;;;;;;;;7389530;19;19998;-70
2022/10/11 03:10:08;;;;;;;11.60;2.35;;;;;;;;;;7390622;19;19999;-68
2022/10/11 03:12:34;;;;;;;8.50;2.20;;;;;;;;;;7388181;19;20022;-70
2022/10/11 03:14:59;;;;;;;13.95;2.40;;;;;;;;;;7389191;19;20003;-69
2022/10/11 03:17:26;;;;;;;7.10;2.20;;;;;;;;;;7389647;19;20001;-70
2022/10/11 03:19:52;;;;;;;9.65;2.20;;;;;;;;;;7387689;19;20082;-70
2022/10/11 03:22:17;;;;;;;11.48;2.63;;;;;;;;;;7386333;19;20131;-70
2022/10/11 03:24:42;;;;;;;7.55;2.15;;;;;;;;;;7389734;19;20006;-69
2022/10/11 03:27:07;;;;;;;11.63;2.88;;;;;;;;;;7387489;19;20471;-70
2022/10/11 03:29:33;;;;;;;9.63;2.53;;;;;;;;;;7389116;19;19999;-69
2022/10/11 03:31:58;;;;;;;6.32;2.13;;;;;;;;;;7386014;19;20010;-70
2022/10/11 03:34:23;;;;;;;8.10;2.50;;;;;;;;;;7388645;19;20010;-70
2022/10/11 03:36:49;;;;;;;7.88;2.10;;;;;;;;;;7394080;19;20003;-70
2022/10/11 03:39:15;;;;;;;7.45;2.00;;;;;;;;;;7389050;19;20062;-70
2022/10/11 03:41:40;;;;;;;7.00;2.22;;;;;;;;;;7384585;19;20470;-70
2022/10/11 03:44:06;;;;;;;6.78;2.05;;;;;;;;;;7387347;19;20038;-70
2022/10/11 03:46:31;;;;;;;12.48;2.50;;;;;;;;;;7388612;19;20062;-70
2022/10/11 03:48:57;;;;;;;6.68;1.92;;;;;;;;;;7390195;19;19998;-69
2022/10/11 03:51:22;;;;;;;8.90;2.30;;;;;;;;;;7386435;19;20010;-71
2022/10/11 03:53:47;;;;;;;7.20;1.90;;;;;;;;;;7390070;19;20003;-70
2022/10/11 03:56:13;;;;;;;9.52;2.40;;;;;;;;;;7382541;19;20002;-70
2022/10/11 03:58:40;;;;;;;4.68;1.95;;;;;;;;;;7384040;19;20005;-71
2022/10/11 04:01:06;;;;;;;10.80;2.10;;;;;;;;;;7383449;19;20024;-70
2022/10/11 04:03:31;;;;;;;10.95;2.20;;;;;;;;;;7387571;19;20052;-70
2022/10/11 04:05:56;;;;;;;9.27;2.10;;;;;;;;;;7386001;19;20012;-69
2022/10/11 04:08:21;;;;;;;7.85;2.28;;;;;;;;;;7387990;19;20023;-70
2022/10/11 04:10:47;;;;;;;9.05;2.45;;;;;;;;;;7386336;19;19999;-70
2022/10/11 04:13:13;;;;;;;8.15;1.85;;;;;;;;;;7384125;19;20671;-70
2022/10/11 04:15:40;;;;;;;5.07;1.70;;;;;;;;;;7386995;19;19999;-70
2022/10/11 04:18:05;;;;;;;7.13;2.10;;;;;;;;;;7388928;19;20019;-70
2022/10/11 04:20:31;;;;;;;9.48;2.47;;;;;;;;;;7389263;19;19999;-70
2022/10/11 04:22:56;;;;;;;9.85;2.78;;;;;;;;;;7387002;19;20426;-70
2022/10/11 04:25:22;;;;;;;9.38;1.90;;;;;;;;;;7387814;19;20086;-70
2022/10/11 04:27:47;;;;;;;8.88;1.98;;;;;;;;;;7390108;19;20018;-70
2022/10/11 04:30:14;;;;;;;10.48;2.53;;;;;;;;;;7389606;19;19995;-69
2022/10/11 04:32:39;;;;;;;8.07;2.10;;;;;;;;;;7384740;19;19999;-69
2022/10/11 04:35:05;;;;;;;11.07;2.17;;;;;;;;;;7390037;19;20544;-71
2022/10/11 04:37:31;;;;;;;7.93;1.92;;;;;;;;;;7387402;19;19998;-70
2022/10/11 04:39:56;;;;;;;15.57;2.35;;;;;;;;;;7388172;19;20002;-71
2022/10/11 04:42:22;;;;;;;5.93;1.88;;;;;;;;;;7363296;19;20013;-69
2022/10/11 04:44:47;;;;;;;6.50;1.92;;;;;;;;;;7384117;19;19998;-70
2022/10/11 04:47:18;;;;;;;12.82;2.03;;;;;;;;;;7386931;19;20474;-69
2022/10/11 04:49:44;;;;;;;8.15;2.10;;;;;;;;;;7387563;19;20013;-69
2022/10/11 04:52:09;;;;;;;7.40;1.83;;;;;;;;;;7386619;19;19991;-72
2022/10/11 04:54:34;;;;;;;9.43;2.17;;;;;;;;;;7386685;19;19995;-69
2022/10/11 04:57:00;;;;;;;7.40;2.08;;;;;;;;;;7395129;19;19999;-69
2022/10/11 04:59:25;;;;;;;8.13;2.00;;;;;;;;;;7395362;19;20026;-69
2022/10/11 05:01:50;;;;;;;7.53;2.10;;;;;;;;;;7375781;19;19998;-70
2022/10/11 05:04:16;;;;;;;4.22;1.60;;;;;;;;;;7393387;19;20050;-69
2022/10/11 05:06:41;;;;;;;9.80;2.05;;;;;;;;;;7395999;19;19994;-68
2022/10/11 05:09:07;;;;;;;6.55;1.77;;;;;;;;;;7395109;19;20012;-68
2022/10/11 05:11:32;;;;;;;10.00;1.73;;;;;;;;;;7392207;19;19995;-68
2022/10/11 05:13:57;;;;;;;9.80;2.00;;;;;;;;;;7396309;19;20008;-69
2022/10/11 05:16:23;;;;;;;7.50;1.92;;;;;;;;;;7395712;19;20010;-69
2022/10/11 05:18:48;;;;;;;6.43;1.98;;;;;;;;;;7394899;19;19995;-69
2022/10/11 05:21:17;;;;;;;13.20;2.40;;;;;;;;;;7392844;19;20419;-69
2022/10/11 05:23:43;;;;;;;11.05;2.40;;;;;;;;;;7394528;19;20330;-69
2022/10/11 05:26:08;;;;;;;5.68;2.17;;;;;;;;;;7394736;19;20029;-68
2022/10/11 05:28:34;;;;;;;10.45;2.03;;;;;;;;;;7394450;19;20001;-68
2022/10/11 05:30:59;;;;;;;9.77;2.25;;;;;;;;;;7392680;19;20094;-69
2022/10/11 05:33:25;;;;;;;7.28;1.85;;;;;;;;;;7393837;19;20003;-69
2022/10/11 05:35:50;;;;;;;12.40;2.28;;;;;;;;;;7391059;19;20456;-69
2022/10/11 05:38:16;;;;;;;8.38;1.85;;;;;;;;;;7393129;19;20082;-68
2022/10/11 05:40:42;;;;;;;8.70;2.08;;;;;;;;;;7390034;19;20760;-69
2022/10/11 05:43:07;;;;;;;11.18;2.17;;;;;;;;;;7390098;19;20508;-69
2022/10/11 05:45:39;;;;;;;11.90;2.13;;;;;;;;;;7338109;19;1005559;-68
2022/10/11 05:48:05;;;;;;;5.90;1.60;;;;;;;;;;7392855;19;20013;-69
2022/10/11 05:50:31;;;;;;;8.43;1.90;;;;;;;;;;7389599;19;20002;-69
2022/10/11 05:52:57;;;;;;;8.48;2.67;;;;;;;;;;7391758;19;20014;-69
2022/10/11 05:55:22;;;;;;;8.68;2.65;;;;;;;;;;7391419;19;20096;-69
2022/10/11 05:57:51;;;;;;;11.73;2.50;;;;;;;;;;7394903;19;20357;-68
2022/10/11 06:00:16;;;;;;;10.05;2.13;;;;;;;;;;7393723;19;20029;-68
2022/10/11 06:02:42;;;;;;;13.73;2.53;;;;;;;;;;7385345;19;20097;-68
2022/10/11 06:05:07;;;;;;;9.38;2.65;;;;;;;;;;7391202;19;20384;-69
2022/10/11 06:07:35;;;;;;;9.25;2.42;;;;;;;;;;7393634;19;20064;-68
2022/10/11 06:10:00;;;;;;;9.38;2.30;;;;;;;;;;7393740;19;19998;-68
2022/10/11 06:12:28;;;;;;;10.38;2.25;;;;;;;;;;7390177;19;20101;-68
2022/10/11 06:14:56;;;;;;;7.75;2.00;;;;;;;;;;7380973;19;20483;-68
2022/10/11 06:17:22;;;;;;;10.40;2.47;;;;;;;;;;7388851;19;20011;-68
2022/10/11 06:19:48;;;;;;;7.13;2.78;;;;;;;;;;7389445;19;20003;-68
2022/10/11 06:22:13;;;;;;;6.30;2.05;;;;;;;;;;7392627;19;20005;-68
2022/10/11 06:24:38;;;;;;;8.07;2.50;;;;;;;;;;7392593;19;20070;-68
2022/10/11 06:27:04;;;;;;;4.82;2.05;;;;;;;;;;7391447;19;19998;-68
2022/10/11 06:29:29;;;;;;;12.50;2.10;;;;;;;;;;7391968;19;20003;-67
2022/10/11 06:31:54;;;;;;;17.88;2.70;;;;;;;;;;7390078;19;19991;-68
2022/10/11 06:34:20;;;;;;;8.02;2.15;;;;;;;;;;7391790;19;20337;-68
2022/10/11 06:36:45;;;;;;;7.93;2.65;;;;;;;;;;7388425;19;20022;-68
2022/10/11 06:39:11;;;;;;;7.72;2.47;;;;;;;;;;7391589;19;20112;-69
2022/10/11 06:41:36;;;;;;;11.93;2.17;;;;;;;;;;7390135;19;20005;-68
2022/10/11 06:44:01;;;;;;;12.23;2.47;;;;;;;;;;7391673;19;20019;-68
2022/10/11 06:46:27;;;;;;;12.95;2.25;;;;;;;;;;7389809;19;20384;-68
2022/10/11 06:48:55;;;;;;;9.43;1.90;;;;;;;;;;7390505;19;20507;-68
2022/10/11 06:51:21;;;;;;;9.25;2.30;;;;;;;;;;7388925;19;19998;-69
2022/10/11 06:53:51;;;;;;;11.40;2.15;;;;;;;;;;7390341;19;20017;-69
2022/10/11 06:56:17;;;;;;;11.65;2.35;;;;;;;;;;7390693;19;20050;-69
2022/10/11 06:58:42;;;;;;;8.02;2.30;;;;;;;;;;7390847;19;20337;-68
2022/10/11 07:01:12;;;;;;;10.02;2.20;;;;;;;;;;7385647;19;19994;-68
2022/10/11 07:03:37;;;;;;;12.02;1.80;;;;;;;;;;7388943;19;20502;-68
2022/10/11 07:06:05;;;;;;;8.57;1.85;;;;;;;;;;7390857;19;20010;-68
2022/10/11 07:08:31;;;;;;;9.85;1.88;;;;;;;;;;7388044;19;20654;-68
2022/10/11 07:11:05;;;;;;;11.35;1.88;;;;;;;;;;7390874;19;20011;-69
2022/10/11 07:13:30;;;;;;;9.10;2.20;;;;;;;;;;7391410;19;19994;-69
2022/10/11 07:15:56;;;;;;;11.25;2.17;;;;;;;;;;7388605;19;20439;-69
2022/10/11 07:18:22;;;;;;;10.27;2.13;;;;;;;;;;7389593;19;20002;-68
2022/10/11 07:20:47;;;;;;;11.32;2.20;;;;;;;;;;7388670;19;20646;-68
2022/10/11 07:23:13;;;;;;;26.17;8.48;;;;;;;;;;7388322;19;19998;-69
2022/10/11 07:25:38;;;;;;;18.88;3.88;;;;;;;;;;7390557;19;20019;-69
2022/10/11 07:28:03;;;;;;;13.55;2.30;;;;;;;;;;7392092;19;20040;-69
2022/10/11 07:30:29;;;;;;;16.52;2.15;;;;;;;;;;7388145;19;20377;-68
2022/10/11 07:32:54;;;;;;;8.43;2.03;;;;;;;;;;7385708;19;20003;-69
2022/10/11 07:35:19;;;;;;;7.22;2.03;;;;;;;;;;7388680;19;20002;-69
2022/10/11 07:38:01;;;;;;;9.77;2.38;;;;;;;;;;7392059;19;20014;-68
2022/10/11 07:40:26;;;;;;;10.13;2.55;;;;;;;;;;7387478;19;20452;-68
2022/10/11 07:42:51;;;;;;;16.20;6.70;;;;;;;;;;7386329;19;20007;-68
2022/10/11 07:45:17;;;;;;;13.00;2.42;;;;;;;;;;7387540;19;20006;-68
2022/10/11 07:47:45;;;;;;;12.88;2.28;;;;;;;;;;7390919;19;20026;-68
2022/10/11 07:50:11;;;;;;;9.13;2.00;;;;;;;;;;7389073;19;20031;-68
2022/10/11 07:52:37;;;;;;;8.93;2.30;;;;;;;;;;7386052;19;20472;-67
2022/10/11 07:55:02;;;;;;;11.23;2.10;;;;;;;;;;7386622;19;19995;-67
2022/10/11 07:57:28;;;;;;;9.35;2.50;;;;;;;;;;7386378;19;19999;-67
2022/10/11 07:59:53;;;;;;;7.75;2.10;;;;;;;;;;7388682;19;19994;-68
2022/10/11 08:02:18;;;;;;;9.95;2.42;;;;;;;;;;7388742;19;20420;-68
2022/10/11 08:04:43;;;;;;;14.73;2.42;;;;;;;;;;7388179;19;20104;-68
2022/10/11 08:07:09;;;;;;;11.15;2.45;;;;;;;;;;7390290;19;19994;-68
2022/10/11 08:09:34;;;;;;;10.43;1.80;;;;;;;;;;7388904;19;20003;-68
2022/10/11 08:12:00;;;;;;;10.18;1.85;;;;;;;;;;7386271;19;20094;-67
2022/10/11 08:14:25;;;;;;;5.70;1.80;;;;;;;;;;7387551;19;19991;-68
2022/10/11 08:16:50;;;;;;;5.47;1.88;;;;;;;;;;7385433;19;20031;-67
2022/10/11 08:19:17;;;;;;;9.25;2.28;;;;;;;;;;7388319;19;19990;-68
2022/10/11 08:21:42;;;;;;;6.30;1.95;;;;;;;;;;7386715;19;20356;-68
2022/10/11 08:24:08;;;;;;;5.85;1.52;;;;;;;;;;7388389;19;19991;-68
2022/10/11 08:26:34;;;;;;;7.82;1.85;;;;;;;;;;7384483;19;20006;-68
2022/10/11 08:29:03;;;;;;;9.70;1.92;;;;;;;;;;7390858;19;19998;-68
2022/10/11 08:31:29;;;;;;;9.88;2.22;;;;;;;;;;7393723;19;20003;-68
2022/10/11 08:33:54;;;;;;;11.55;1.90;;;;;;;;;;7393933;19;20326;-68
2022/10/11 08:36:20;;;;;;;11.38;1.90;;;;;;;;;;7394932;19;20021;-68
2022/10/11 08:38:45;;;;;;;11.05;2.20;;;;;;;;;;7394915;19;20034;-68
2022/10/11 08:41:29;;;;;;;12.82;2.78;;;;;;;;;;7392915;19;20058;-69
2022/10/11 08:44:04;;;;;;;8.13;2.08;;;;;;;;;;7396407;19;20579;-66
2022/10/11 08:46:32;;;;;;;6.30;1.73;;;;;;;;;;7393434;19;19998;-67
2022/10/11 08:48:59;;;;;;;11.75;2.00;;;;;;;;;;7392929;19;20335;-68
2022/10/11 08:51:29;;;;;;;6.10;1.60;;;;;;;;;;7392103;19;20003;-68
2022/10/11 08:54:01;;;;;;;9.23;1.90;;;;;;;;;;7396487;19;19999;-67
2022/10/11 08:56:29;;;;;;;8.45;1.92;;;;;;;;;;7390699;19;20002;-67
2022/10/11 08:59:00;;;;;;;12.35;2.17;;;;;;;;;;7394726;19;20082;-66
2022/10/11 09:01:27;;;;;;;8.43;2.08;;;;;;;;;;7393447;19;20013;-68
2022/10/11 09:03:53;;;;;;;8.27;1.80;;;;;;;;;;7394387;19;20376;-68
2022/10/11 09:06:42;;;;;;;6.20;1.73;;;;;;;;;;7342411;19;1005058;-67
2022/10/11 09:09:47;;;;;;;5.75;1.60;;;;;;;;;;7396154;19;19998;-68
2022/10/11 09:12:42;;;;;;;5.75;1.58;;;;;;;;;;7394349;19;20002;-66
2022/10/11 09:15:23;;;;;;;6.65;1.83;;;;;;;;;;7395135;19;20003;-68
2022/10/11 09:18:14;;;;;;;11.48;1.77;;;;;;;;;;7395336;19;19995;-68
2022/10/11 09:20:58;;;;;;;5.50;1.60;;;;;;;;;;7394174;19;19999;-68
2022/10/11 09:23:42;;;;;;;8.48;2.08;;;;;;;;;;7394484;19;19999;-68
2022/10/11 09:26:27;;;;;;;8.57;2.00;;;;;;;;;;7395313;19;20070;-67
2022/10/11 09:29:08;;;;;;;8.88;1.83;;;;;;;;;;7393119;19;20354;-67
2022/10/11 09:31:33;;;;;;;;;;;;;;;;;;7386603;19;20356;-68
2022/10/11 09:34:09;;;;;;;5.50;1.80;;;;;;;;;;7395016;19;19911;-68
2022/10/11 09:36:53;;;;;;;6.75;1.90;;;;;;;;;;7392501;19;20021;-67
2022/10/11 09:39:32;;;;;;;9.00;2.00;;;;;;;;;;7393113;19;20651;-68
2022/10/11 09:42:01;;;;;;;6.50;1.75;;;;;;;;;;7390250;19;20023;-67
2022/10/11 09:44:32;;;;;;;6.75;1.75;;;;;;;;;;7390385;19;20002;-68
2022/10/11 09:46:58;;;;;;;9.13;1.90;;;;;;;;;;7394452;19;20006;-68
2022/10/11 09:49:49;;;;;;;10.52;2.28;;;;;;;;;;7394050;19;20002;-69
2022/10/11 09:52:17;;;;;;;7.47;2.10;;;;;;;;;;7393293;19;20135;-68
2022/10/11 09:54:48;;;;;;;7.80;2.30;;;;;;;;;;7391892;19;19995;-68
2022/10/11 09:57:23;;;;;;;6.78;1.90;;;;;;;;;;7393491;19;20036;-68
2022/10/11 10:00:17;;;;;;;10.93;4.18;;;;;;;;;;7391480;19;20009;-68
2022/10/11 10:02:45;;;;;;;9.15;2.15;;;;;;;;;;7389231;19;20002;-68
2022/10/11 10:05:16;;;;;;;7.45;1.92;;;;;;;;;;7386980;19;20006;-68
2022/10/11 10:08:07;;;;;;;6.35;1.95;;;;;;;;;;7393031;19;20010;-68
2022/10/11 10:10:47;;;;;;;7.28;1.85;;;;;;;;;;7388647;19;20069;-67
2022/10/11 10:13:23;;;;;;;10.68;1.80;;;;;;;;;;7391117;19;20019;-68
2022/10/11 10:15:52;;;;;;;7.95;1.40;;;;;;;;;;7392694;19;20479;-68
2022/10/11 10:18:22;;;;;;;7.13;1.83;;;;;;;;;;7394502;19;20026;-69
2022/10/11 10:20:56;;;;;;;8.13;1.58;;;;;;;;;;7390299;19;20010;-68
2022/10/11 10:23:30;;;;;;;7.50;1.50;;;;;;;;;;7391489;19;20519;-68
2022/10/11 10:26:32;;;;;;;7.00;2.03;;;;;;;;;;7391914;19;20009;-69
2022/10/11 10:28:57;;;;;;;8.85;1.75;;;;;;;;;;7386884;19;20515;-68
2022/10/11 10:31:50;;;;;;;4.37;1.60;;;;;;;;;;7383325;19;20010;-69
2022/10/11 10:34:22;;;;;;;11.70;1.85;;;;;;;;;;7393690;19;20268;-67
2022/10/11 10:36:56;;;;;;;9.52;1.90;;;;;;;;;;7385878;19;20002;-69
2022/10/11 10:39:43;;;;;;;5.72;1.42;;;;;;;;;;7383092;19;20009;-67
2022/10/11 10:42:17;;;;;;;9.15;1.80;;;;;;;;;;7385680;19;20389;-68
2022/10/11 10:44:47;;;;;;;6.05;1.98;;;;;;;;;;7387858;19;20027;-68
2022/10/11 10:47:28;;;;;;;5.78;1.88;;;;;;;;;;7391931;19;20002;-67
2022/10/11 10:50:03;;;;;;;8.38;2.25;;;;;;;;;;7389945;19;20508;-68
2022/10/11 10:52:53;;;;;;;10.18;1.95;;;;;;;;;;7386027;19;20380;-69
2022/10/11 10:55:25;;;;;;;12.05;2.03;;;;;;;;;;7390248;19;20405;-68
2022/10/11 10:58:01;;;;;;;8.15;1.90;;;;;;;;;;7390129;19;20006;-66
2022/10/11 11:00:35;;;;;;;8.23;1.60;;;;;;;;;;7389937;19;20077;-68
2022/10/11 11:03:36;;;;;;;9.50;1.98;;;;;;;;;;7386854;19;20494;-68
2022/10/11 11:06:05;;;;;;;7.97;1.67;;;;;;;;;;7389144;19;20080;-69
2022/10/11 11:08:54;;;;;;;10.60;2.20;;;;;;;;;;7389996;19;19999;-67
2022/10/11 11:11:33;;;;;;;6.32;1.60;;;;;;;;;;7384855;19;20556;-67
2022/10/11 11:14:20;;;;;;;7.88;1.85;;;;;;;;;;7390505;19;20026;-69
2022/10/11 11:17:07;;;;;;;8.52;1.90;;;;;;;;;;7388003;19;20002;-67
2022/10/11 11:19:57;;;;;;;7.97;2.08;;;;;;;;;;7390517;19;20006;-69
2022/10/11 11:22:45;;;;;;;6.70;2.17;;;;;;;;;;7390467;19;20002;-67
2022/10/11 11:25:40;;;;;;;12.18;2.30;;;;;;;;;;7389289;19;20009;-69
2022/10/11 11:28:24;;;;;;;5.50;1.73;;;;;;;;;;7388552;19;20009;-67
2022/10/11 11:31:06;;;;;;;7.88;2.10;;;;;;;;;;7388700;19;20006;-68
2022/10/11 11:33:50;;;;;;;8.02;1.83;;;;;;;;;;7388532;19;19999;-68
2022/10/11 11:36:25;;;;;;;9.68;1.67;;;;;;;;;;7389275;19;20025;-68
2022/10/11 11:38:57;;;;;;;9.18;2.05;;;;;;;;;;7389122;19;20002;-68
2022/10/11 11:41:32;;;;;;;8.95;2.30;;;;;;;;;;7388253;19;20006;-69
2022/10/11 11:44:09;;;;;;;9.50;2.17;;;;;;;;;;7390751;19;20074;-68
2022/10/11 11:46:43;;;;;;;9.13;1.60;;;;;;;;;;7388904;19;20413;-68
2022/10/11 11:49:36;;;;;;;5.05;1.85;;;;;;;;;;7388629;19;20009;-68
2022/10/11 11:52:04;;;;;;;10.93;2.03;;;;;;;;;;7387928;19;20005;-68
2022/10/11 11:54:41;;;;;;;6.95;1.80;;;;;;;;;;7389300;19;20023;-67
2022/10/11 11:57:48;;;;;;;5.93;1.90;;;;;;;;;;7388807;19;20006;-68
2022/10/11 12:00:39;;;;;;;7.35;1.85;;;;;;;;;;7390290;19;20006;-67
2022/10/11 12:03:19;;;;;;;8.23;1.83;;;;;;;;;;7388103;19;20002;-69
2022/10/11 12:06:15;;;;;;;5.20;1.70;;;;;;;;;;7398299;19;20002;-67
2022/10/11 12:08:47;;;;;;;8.25;1.83;;;;;;;;;;7395258;19;19995;-69
2022/10/11 12:11:36;;;;;;;8.45;1.98;;;;;;;;;;7394718;19;20002;-68
2022/10/11 12:14:15;;;;;;;8.60;1.70;;;;;;;;;;7397809;19;20475;-68
2022/10/11 12:17:04;;;;;;;8.68;1.80;;;;;;;;;;7396074;19;20007;-68
2022/10/11 12:19:29;;;;;;;4.70;1.48;;;;;;;;;;7397999;19;20387;-68
2022/10/11 12:22:18;;;;;;;4.47;1.70;;;;;;;;;;7391868;19;20003;-68
2022/10/11 12:24:58;;;;;;;9.82;1.95;;;;;;;;;;7396178;19;20253;-68
2022/10/11 12:27:45;;;;;;;5.55;1.60;;;;;;;;;;7397304;19;20343;-68
2022/10/11 12:30:49;;;;;;;6.78;1.73;;;;;;;;;;7397107;19;20010;-67
2022/10/11 12:33:48;;;;;;;9.13;2.17;;;;;;;;;;7393179;19;20456;-68
2022/10/11 12:36:22;;;;;;;9.40;1.75;;;;;;;;;;7394911;19;20078;-68
2022/10/11 12:39:19;;;;;;;7.53;2.28;;;;;;;;;;7395652;19;20066;-68
2022/10/11 12:41:48;;;;;;;7.45;2.70;;;;;;;;;;7385672;19;20027;-68
2022/10/11 12:44:21;;;;;;;6.43;2.10;;;;;;;;;;7398204;19;19999;-68
2022/10/11 12:46:50;;;;;;;7.00;1.73;;;;;;;;;;7394430;19;20019;-68
2022/10/11 12:49:58;;;;;;;7.18;1.88;;;;;;;;;;7395532;19;20007;-67
2022/10/11 12:52:56;;;;;;;8.27;1.90;;;;;;;;;;7394404;19;20003;-68
2022/10/11 12:55:33;;;;;;;4.43;1.50;;;;;;;;;;7393440;19;20066;-68
2022/10/11 12:58:23;;;;;;;8.80;1.67;;;;;;;;;;7393913;19;20006;-68
2022/10/11 13:00:51;;;;;;;4.78;1.70;;;;;;;;;;7395251;19;20001;-67
2022/10/11 13:03:25;;;;;;;5.80;1.50;;;;;;;;;;7394291;19;20002;-68
2022/10/11 13:05:55;;;;;;;3.58;1.23;;;;;;;;;;7396512;19;20007;-67
2022/10/11 13:08:36;;;;;;;5.43;1.35;;;;;;;;;;7397118;19;20423;-68
2022/10/11 13:11:05;;;;;;;6.00;1.55;;;;;;;;;;7391769;19;20003;-67
2022/10/11 13:13:36;;;;;;;6.50;1.80;;;;;;;;;;7395390;19;20003;-67
2022/10/11 13:16:08;;;;;;;11.75;2.38;;;;;;;;;;7391986;19;20005;-68
2022/10/11 13:18:33;;;;;;;4.10;1.45;;;;;;;;;;7393567;19;20015;-66
2022/10/11 13:20:59;;;;;;;6.90;1.30;;;;;;;;;;7391409;19;20400;-68
2022/10/11 13:23:28;;;;;;;6.93;1.60;;;;;;;;;;7394399;19;20025;-67
2022/10/11 13:25:54;;;;;;;5.70;1.55;;;;;;;;;;7394381;19;20040;-67
2022/10/11 13:28:21;;;;;;;4.00;1.60;;;;;;;;;;7395103;19;20450;-67
2022/10/11 13:30:54;;;;;;;4.97;1.60;;;;;;;;;;7391873;19;20459;-67
2022/10/11 13:33:25;;;;;;;5.70;1.52;;;;;;;;;;7392845;19;20190;-67
2022/10/11 13:35:51;;;;;;;7.40;1.83;;;;;;;;;;7391707;19;20003;-68
2022/10/11 13:38:24;;;;;;;4.97;1.58;;;;;;;;;;7394272;19;20010;-67
2022/10/11 13:40:50;;;;;;;4.45;1.60;;;;;;;;;;7389727;19;20349;-67
2022/10/11 13:43:26;;;;;;;4.25;1.58;;;;;;;;;;7393200;19;20038;-67
2022/10/11 13:45:53;;;;;;;6.70;1.40;;;;;;;;;;7395442;19;20468;-67
2022/10/11 13:48:18;;;;;;;5.75;1.52;;;;;;;;;;7395740;19;20011;-66
2022/10/11 13:50:51;;;;;;;5.13;1.70;;;;;;;;;;7391778;19;20003;-68
2022/10/11 13:53:16;;;;;;;3.38;1.20;;;;;;;;;;7391676;19;20464;-68
2022/10/11 13:55:41;;;;;;;8.70;1.30;;;;;;;;;;7393611;19;20087;-68
2022/10/11 13:58:45;;;;;;;8.13;1.60;;;;;;;;;;7393304;19;20764;-67
2022/10/11 14:01:34;;;;;;;6.97;1.60;;;;;;;;;;7390160;19;20749;-68
2022/10/11 14:04:02;;;;;;;6.65;1.50;;;;;;;;;;7393272;19;20005;-66
2022/10/11 14:06:55;;;;;;;9.95;4.30;;;;;;;;;;7392808;19;20002;-67
2022/10/11 14:09:25;;;;;;;3.90;1.27;;;;;;;;;;7393942;19;20009;-67
2022/10/11 14:11:50;;;;;;;4.43;1.33;;;;;;;;;;7378585;19;20011;-66
2022/10/11 14:14:31;;;;;;;6.38;1.60;;;;;;;;;;7392467;19;20006;-68
2022/10/11 14:17:02;;;;;;;5.10;1.70;;;;;;;;;;7389568;19;20021;-67
2022/10/11 14:19:28;;;;;;;5.07;1.40;;;;;;;;;;7394072;19;20007;-69
2022/10/11 14:21:53;;;;;;;8.13;1.80;;;;;;;;;;7389868;19;20002;-67
2022/10/11 14:24:19;;;;;;;6.82;1.75;;;;;;;;;;7393271;19;20467;-68
2022/10/11 14:26:49;;;;;;;5.10;1.60;;;;;;;;;;7391825;19;20073;-68
2022/10/11 14:29:29;;;;;;;6.55;1.70;;;;;;;;;;7393351;19;20007;-68
2022/10/11 14:32:27;;;;;;;6.47;1.38;;;;;;;;;;7389803;19;20010;-68
2022/10/11 14:34:53;;;;;;;3.55;1.10;;;;;;;;;;7392146;19;20017;-67
2022/10/11 14:37:19;;;;;;;4.53;1.20;;;;;;;;;;7388796;19;19994;-67
2022/10/11 14:39:46;;;;;;;7.53;2.13;;;;;;;;;;7391049;19;19999;-68
2022/10/11 14:42:12;;;;;;;6.25;1.33;;;;;;;;;;7381282;19;20376;-67
2022/10/11 14:44:38;;;;;;;6.03;2.67;;;;;;;;;;7388144;19;20050;-68
2022/10/11 14:47:08;;;;;;;10.88;4.22;;;;;;;;;;7390366;19;20012;-67
2022/10/11 14:49:35;;;;;;;5.13;1.27;;;;;;;;;;7390140;19;20084;-68
2022/10/11 14:52:04;;;;;;;4.30;1.48;;;;;;;;;;7390165;19;20386;-67
2022/10/11 14:54:30;;;;;;;7.95;1.58;;;;;;;;;;7389826;19;20011;-67
2022/10/11 14:56:58;;;;;;;9.75;1.50;;;;;;;;;;7389853;19;20013;-67
2022/10/11 14:59:26;;;;;;;4.40;1.48;;;;;;;;;;7393194;19;20066;-67
2022/10/11 15:01:53;;;;;;;7.35;1.77;;;;;;;;;;7389600;19;20025;-66
2022/10/11 15:04:23;;;;;;;5.53;1.88;;;;;;;;;;7392785;19;19998;-66